createdAt,value
2018-06-07T00:00:10.968Z,15.10
2018-06-07T00:02:37.935Z,15.10
2018-06-07T00:05:04.872Z,15.00
2018-06-07T00:07:31.795Z,14.90
2018-06-07T00:09:58.751Z,14.90
2018-06-07T00:12:25.662Z,14.90
2018-06-07T00:14:52.576Z,14.90
2018-06-07T00:17:19.559Z,14.80
2018-06-07T00:19:46.501Z,14.80
2018-06-07T00:22:13.435Z,14.70
2018-06-07T00:24:40.399Z,14.70
2018-06-07T00:27:07.322Z,14.70
2018-06-07T00:29:34.283Z,14.60
2018-06-07T00:32:01.256Z,14.60
2018-06-07T00:34:28.172Z,14.50
2018-06-07T00:36:55.103Z,14.50
2018-06-07T00:39:22.054Z,14.50
2018-06-07T00:41:48.971Z,14.40
2018-06-07T00:44:15.905Z,14.40
2018-06-07T00:46:42.848Z,14.30
2018-06-07T00:49:09.799Z,14.30
2018-06-07T00:51:36.717Z,14.30
2018-06-07T00:54:03.698Z,14.30
2018-06-07T00:56:42.398Z,14.30
2018-06-07T00:59:09.371Z,14.20
2018-06-07T01:01:36.271Z,14.20
2018-06-07T01:04:03.180Z,14.20
2018-06-07T01:06:30.148Z,14.10
2018-06-07T01:08:57.144Z,14.10
2018-06-07T01:11:24.302Z,14.10
2018-06-07T01:13:51.356Z,14.10
2018-06-07T01:16:18.285Z,14.10
2018-06-07T01:18:45.271Z,14.10
2018-06-07T01:21:12.220Z,14.00
2018-06-07T01:23:39.157Z,14.10
2018-06-07T01:26:06.108Z,14.00
2018-06-07T01:28:33.047Z,14.00
2018-06-07T01:31:05.989Z,13.90
2018-06-07T01:33:39.984Z,13.90
2018-06-07T01:36:06.925Z,13.80
2018-06-07T01:38:45.716Z,13.80
2018-06-07T01:41:12.636Z,13.80
2018-06-07T01:43:39.568Z,13.70
2018-06-07T01:46:06.519Z,13.80
2018-06-07T01:48:33.487Z,13.70
2018-06-07T01:51:00.428Z,13.70
2018-06-07T01:53:27.364Z,13.60
2018-06-07T01:55:54.334Z,13.60
2018-06-07T01:58:21.273Z,13.60
2018-06-07T02:00:48.339Z,13.60
2018-06-07T02:03:15.260Z,13.50
2018-06-07T02:05:42.192Z,13.50
2018-06-07T02:08:09.139Z,13.50
2018-06-07T02:10:36.055Z,13.50
2018-06-07T02:13:03.000Z,13.50
2018-06-07T02:15:29.961Z,13.40
2018-06-07T02:17:56.889Z,13.40
2018-06-07T02:20:24.345Z,13.40
2018-06-07T02:22:51.328Z,13.40
2018-06-07T02:25:18.254Z,13.30
2018-06-07T02:27:45.340Z,13.30
2018-06-07T02:30:12.329Z,13.30
2018-06-07T02:32:39.266Z,13.30
2018-06-07T02:35:06.207Z,13.20
2018-06-07T02:37:33.199Z,13.20
2018-06-07T02:40:00.145Z,13.20
2018-06-07T02:42:27.092Z,13.20
2018-06-07T02:44:54.040Z,13.10
2018-06-07T02:47:20.985Z,13.20
2018-06-07T02:49:47.952Z,13.10
2018-06-07T02:52:15.027Z,13.10
2018-06-07T02:54:41.957Z,13.10
2018-06-07T02:57:08.893Z,13.20
2018-06-07T02:59:35.851Z,13.10
2018-06-07T03:02:02.787Z,13.10
2018-06-07T03:04:30.168Z,13.10
2018-06-07T03:06:57.115Z,13.10
2018-06-07T03:09:24.078Z,13.10
2018-06-07T03:11:51.006Z,13.10
2018-06-07T03:14:17.957Z,13.10
2018-06-07T03:16:44.883Z,13.10
2018-06-07T03:19:11.831Z,13.10
2018-06-07T03:21:38.775Z,13.10
2018-06-07T03:24:05.682Z,13.10
2018-06-07T03:26:32.649Z,13.10
2018-06-07T03:28:59.627Z,13.10
2018-06-07T03:33:53.571Z,13.20
2018-06-07T03:36:20.522Z,13.10
2018-06-07T03:38:47.435Z,13.10
2018-06-07T03:41:14.353Z,13.20
2018-06-07T03:43:41.309Z,13.20
2018-06-07T03:46:08.243Z,13.30
2018-06-07T03:48:35.142Z,13.30
2018-06-07T03:51:02.103Z,13.30
2018-06-07T03:53:29.068Z,13.40
2018-06-07T03:55:55.983Z,13.50
2018-06-07T03:58:22.922Z,13.40
2018-06-07T04:00:50.033Z,13.50
2018-06-07T04:03:16.943Z,13.50
2018-06-07T04:05:43.891Z,13.60
2018-06-07T04:08:10.811Z,13.60
2018-06-07T04:10:37.763Z,13.60
2018-06-07T04:13:04.736Z,13.60
2018-06-07T04:15:31.669Z,13.70
2018-06-07T04:17:58.593Z,13.70
2018-06-07T04:20:25.624Z,13.80
2018-06-07T04:22:52.554Z,13.80
2018-06-07T04:25:19.487Z,13.90
2018-06-07T04:27:46.437Z,13.90
2018-06-07T04:30:13.374Z,14.00
2018-06-07T04:32:40.313Z,14.00
2018-06-07T04:35:07.266Z,14.00
2018-06-07T04:37:34.213Z,14.10
2018-06-07T04:40:01.157Z,14.20
2018-06-07T04:42:28.156Z,14.40
2018-06-07T04:44:55.088Z,14.60
2018-06-07T04:47:22.030Z,14.80
2018-06-07T04:49:49.057Z,14.90
2018-06-07T04:52:16.008Z,15.20
2018-06-07T04:54:42.964Z,15.30
2018-06-07T04:57:10.489Z,15.60
2018-06-07T04:59:37.434Z,15.80
2018-06-07T05:02:04.381Z,16.00
2018-06-07T05:04:31.324Z,16.50
2018-06-07T05:06:58.256Z,16.40
2018-06-07T05:09:25.193Z,16.80
2018-06-07T05:11:52.156Z,16.60
2018-06-07T05:14:19.076Z,16.40
2018-06-07T05:16:46.038Z,16.40
2018-06-07T05:19:13.001Z,16.40
2018-06-07T05:21:39.931Z,16.50
2018-06-07T05:24:06.882Z,16.60
2018-06-07T05:26:33.828Z,16.50
2018-06-07T05:29:00.762Z,16.20
2018-06-07T05:31:27.909Z,16.40
2018-06-07T05:33:54.906Z,16.50
2018-06-07T05:36:21.862Z,16.50
2018-06-07T05:38:48.876Z,16.40
2018-06-07T05:41:15.817Z,16.40
2018-06-07T05:43:43.659Z,16.50
2018-06-07T05:46:10.588Z,16.60
2018-06-07T05:48:37.541Z,16.60
2018-06-07T05:51:04.495Z,16.70
2018-06-07T05:53:31.481Z,16.70
2018-06-07T05:55:58.476Z,16.80
2018-06-07T05:58:25.456Z,16.70
2018-06-07T06:00:52.409Z,17.00
2018-06-07T06:03:19.397Z,17.00
2018-06-07T06:05:46.354Z,17.10
2018-06-07T06:13:07.413Z,17.60
2018-06-07T06:15:34.393Z,17.80
2018-06-07T06:18:01.394Z,17.80
2018-06-07T06:20:28.318Z,18.30
2018-06-07T06:22:55.260Z,18.60
2018-06-07T06:25:22.224Z,19.10
2018-06-07T06:27:49.189Z,19.20
2018-06-07T06:30:17.316Z,19.30
2018-06-07T06:32:44.264Z,19.40
2018-06-07T06:35:11.194Z,19.60
2018-06-07T06:38:46.952Z,19.60
2018-06-07T06:41:13.913Z,19.40
2018-06-07T06:43:40.847Z,20.20
2018-06-07T06:46:07.833Z,20.70
2018-06-07T06:48:34.757Z,21.30
2018-06-07T06:51:01.705Z,20.60
2018-06-07T06:53:28.693Z,21.20
2018-06-07T06:55:55.637Z,21.00
2018-06-07T06:58:22.560Z,21.10
2018-06-07T07:00:49.511Z,21.30
2018-06-07T07:03:16.436Z,21.60
2018-06-07T07:05:43.375Z,21.80
2018-06-07T07:08:10.317Z,21.80
2018-06-07T07:10:37.253Z,22.20
2018-06-07T07:13:04.324Z,22.70
2018-06-07T07:17:58.586Z,23.50
2018-06-07T07:20:25.508Z,23.30
2018-06-07T07:22:52.468Z,23.10
2018-06-07T07:25:19.999Z,23.80
2018-06-07T07:27:47.026Z,23.90
2018-06-07T07:30:14.078Z,24.90
2018-06-07T07:32:41.004Z,25.30
2018-06-07T07:35:07.939Z,24.90
2018-06-07T07:37:34.896Z,23.40
2018-06-07T07:40:01.873Z,23.50
2018-06-07T07:42:28.914Z,23.60
2018-06-07T07:44:55.858Z,24.00
2018-06-07T07:47:22.925Z,24.30
2018-06-07T07:49:49.853Z,23.80
2018-06-07T07:52:17.069Z,24.50
2018-06-07T07:54:43.976Z,25.20
2018-06-07T07:57:10.899Z,24.30
2018-06-07T07:59:37.860Z,24.40
2018-06-07T08:02:05.173Z,25.00
2018-06-07T08:04:32.141Z,25.10
2018-06-07T08:06:59.092Z,25.00
2018-06-07T08:09:26.032Z,25.50
2018-06-07T08:11:52.964Z,25.90
2018-06-07T08:14:19.936Z,25.80
2018-06-07T08:16:46.883Z,25.60
2018-06-07T08:19:13.802Z,25.20
2018-06-07T08:21:40.761Z,25.00
2018-06-07T08:24:07.712Z,25.30
2018-06-07T08:26:34.721Z,25.90
2018-06-07T08:29:01.699Z,25.30
2018-06-07T08:31:28.689Z,25.80
2018-06-07T08:33:56.511Z,26.50
2018-06-07T08:36:23.530Z,26.60
2018-06-07T08:38:50.506Z,26.80
2018-06-07T08:41:17.918Z,26.90
2018-06-07T09:18:05.367Z,27.20
2018-06-07T09:20:32.337Z,28.60
2018-06-07T09:27:53.425Z,28.90
2018-06-07T09:35:14.459Z,29.50
2018-06-07T09:40:08.459Z,29.20
2018-06-07T09:45:02.447Z,28.20
2018-06-07T09:47:29.408Z,29.20
2018-06-07T09:49:56.383Z,28.00
2018-06-07T09:52:23.361Z,28.70
2018-06-07T09:54:50.310Z,28.30
2018-06-07T09:57:17.398Z,28.20
2018-06-07T09:59:44.396Z,29.50
2018-06-07T10:02:11.358Z,29.70
2018-06-07T10:04:38.332Z,29.00
2018-06-07T10:07:05.270Z,29.50
2018-06-07T10:09:32.247Z,30.20
2018-06-07T10:11:59.463Z,31.20
2018-06-07T10:14:26.419Z,29.90
2018-06-07T10:16:53.442Z,30.40
2018-06-07T10:19:20.417Z,30.00
2018-06-07T10:21:47.451Z,31.00
2018-06-07T10:24:14.385Z,31.10
2018-06-07T10:26:41.356Z,31.30
2018-06-07T10:29:08.316Z,32.10
2018-06-07T10:31:35.260Z,31.30
2018-06-07T10:34:02.216Z,30.10
2018-06-07T10:36:29.161Z,30.40
2018-06-07T10:38:56.124Z,31.00
2018-06-07T10:41:23.058Z,32.30
2018-06-07T10:43:50.005Z,32.40
2018-06-07T10:46:17.047Z,33.10
2018-06-07T10:48:44.110Z,32.20
2018-06-07T10:51:11.100Z,31.00
2018-06-07T10:53:38.071Z,30.90
2018-06-07T10:56:05.027Z,31.40
2018-06-07T11:18:08.834Z,31.80
2018-06-07T11:20:35.759Z,32.80
2018-06-07T11:23:02.710Z,31.50
2018-06-07T11:25:29.659Z,32.20
2018-06-07T11:35:17.767Z,31.10
2018-06-07T11:37:44.682Z,32.10
2018-06-07T11:40:11.638Z,33.10
2018-06-07T11:42:38.572Z,33.60
2018-06-07T11:45:05.480Z,33.40
2018-06-07T11:47:32.452Z,33.30
2018-06-07T11:49:59.375Z,33.50
2018-06-07T11:52:26.298Z,32.10
2018-06-07T11:54:53.289Z,33.40
2018-06-07T11:57:20.209Z,33.10
2018-06-07T11:59:47.196Z,32.60
2018-06-07T12:02:14.169Z,32.10
2018-06-07T12:04:41.161Z,32.70
2018-06-07T12:07:08.415Z,32.50
2018-06-07T12:09:35.403Z,32.00
2018-06-07T12:12:02.633Z,32.40
2018-06-07T12:14:29.570Z,31.10
2018-06-07T12:16:56.825Z,31.70
2018-06-07T12:19:23.773Z,32.50
2018-06-07T16:29:42.067Z,32.70
2018-06-07T16:37:03.590Z,29.30
2018-06-07T16:39:30.707Z,28.40
2018-06-07T16:41:58.366Z,28.10
2018-06-07T16:44:25.289Z,28.10
2018-06-07T16:46:52.435Z,27.80
2018-06-07T16:49:19.405Z,27.80
2018-06-07T16:51:46.362Z,27.80
2018-06-07T16:54:13.366Z,27.60
2018-06-07T16:56:40.491Z,27.60
2018-06-07T16:59:07.624Z,27.60
2018-06-07T17:01:34.586Z,27.80
2018-06-07T17:04:01.552Z,27.60
2018-06-07T17:06:28.865Z,27.60
2018-06-07T17:08:56.021Z,27.50
2018-06-07T17:11:22.975Z,27.40
2018-06-07T17:13:49.908Z,27.30
2018-06-07T17:16:17.597Z,27.30
2018-06-07T17:18:44.586Z,27.20
2018-06-07T17:21:11.534Z,27.30
2018-06-07T17:23:38.830Z,27.30
2018-06-07T17:26:05.916Z,27.10
2018-06-07T17:28:32.893Z,27.10
2018-06-07T17:31:00.677Z,27.10
2018-06-07T17:33:27.632Z,27.00
2018-06-07T17:35:54.569Z,26.90
2018-06-07T17:38:21.510Z,26.90
2018-06-07T17:40:48.461Z,26.90
2018-06-07T17:43:15.396Z,26.80
2018-06-07T17:45:42.337Z,26.80
2018-06-07T17:48:09.449Z,26.70
2018-06-07T17:50:36.372Z,26.70
2018-06-07T17:53:03.591Z,26.70
2018-06-07T17:55:30.547Z,26.60
2018-06-07T17:57:57.526Z,26.40
2018-06-07T18:00:24.491Z,26.40
2018-06-07T18:02:51.436Z,26.30
2018-06-07T18:05:18.787Z,26.20
2018-06-07T18:07:45.741Z,26.10
2018-06-07T18:10:13.408Z,26.10
2018-06-07T18:12:40.537Z,26.10
2018-06-07T18:15:07.431Z,26.00
2018-06-07T18:17:34.364Z,25.90
2018-06-07T18:20:01.548Z,25.80
2018-06-07T18:22:28.592Z,25.70
2018-06-07T18:24:55.549Z,25.70
2018-06-07T18:27:22.507Z,25.50
2018-06-07T18:29:49.476Z,25.40
2018-06-07T18:32:16.434Z,25.30
2018-06-07T18:34:43.384Z,25.20
2018-06-07T18:37:10.356Z,25.20
2018-06-07T18:39:37.292Z,25.00
2018-06-07T18:42:04.344Z,25.00
2018-06-07T18:44:31.326Z,24.90
2018-06-07T18:46:58.296Z,24.80
2018-06-07T18:49:25.470Z,24.70
2018-06-07T18:51:52.466Z,24.60
2018-06-07T18:54:19.416Z,24.60
2018-06-07T18:56:46.353Z,24.40
2018-06-07T18:59:13.326Z,24.40
2018-06-07T19:01:40.352Z,24.30
2018-06-07T19:04:07.298Z,24.20
2018-06-07T19:06:34.405Z,24.10
2018-06-07T19:09:07.159Z,24.00
2018-06-07T19:11:34.264Z,23.90
2018-06-07T19:14:07.028Z,23.80
2018-06-07T19:16:33.981Z,23.70
2018-06-07T19:19:06.838Z,23.60
2018-06-07T19:21:33.824Z,23.60
2018-06-07T19:24:00.783Z,23.50
2018-06-07T19:26:33.635Z,23.40
2018-06-07T19:29:00.669Z,23.40
2018-06-07T19:31:27.815Z,23.20
2018-06-07T19:34:00.584Z,23.20
2018-06-07T19:36:27.614Z,23.10
2018-06-07T19:39:00.313Z,23.00
2018-06-07T19:41:33.181Z,22.90
2018-06-07T19:44:00.130Z,22.80
2018-06-07T19:46:27.259Z,22.80
2018-06-07T19:48:54.414Z,22.70
2018-06-07T19:51:21.417Z,22.70
2018-06-07T19:56:15.547Z,22.60
2018-06-07T19:58:42.673Z,22.50
2018-06-07T20:01:09.604Z,22.40
2018-06-07T20:03:36.550Z,22.30
2018-06-07T20:06:03.480Z,22.20
2018-06-07T20:08:30.477Z,22.20
2018-06-07T20:10:57.380Z,22.20
2018-06-07T20:15:51.459Z,21.80
2018-06-07T20:18:18.481Z,21.80
2018-06-07T20:20:45.430Z,21.80
2018-06-07T20:23:12.357Z,21.70
2018-06-07T20:25:41.392Z,21.60
2018-06-07T20:28:08.363Z,21.50
2018-06-07T20:30:35.297Z,21.50
2018-06-07T20:33:02.244Z,21.40
2018-06-07T20:35:29.980Z,21.30
2018-06-07T20:37:57.132Z,21.30
2018-06-07T20:40:24.104Z,21.20
2018-06-07T20:42:51.088Z,21.20
2018-06-07T20:45:18.152Z,21.10
2018-06-07T20:47:45.131Z,21.00
2018-06-07T20:50:12.139Z,21.00
2018-06-07T20:52:39.084Z,20.90
2018-06-07T20:55:06.066Z,20.80
2018-06-07T20:57:33.010Z,20.70
2018-06-07T21:00:00.011Z,20.60
2018-06-07T21:02:27.885Z,20.60
2018-06-07T21:04:55.316Z,20.60
2018-06-07T21:07:24.672Z,20.50
2018-06-07T21:09:53.196Z,20.50
2018-06-07T21:12:21.062Z,20.40
2018-06-07T21:14:48.823Z,20.30
2018-06-07T21:17:17.588Z,20.20
2018-06-07T21:19:45.462Z,20.20
2018-06-07T21:22:13.320Z,20.20
2018-06-07T21:24:40.820Z,20.10
2018-06-07T21:27:07.819Z,20.10
2018-06-07T21:29:34.836Z,20.00
2018-06-07T21:32:01.820Z,19.90
2018-06-07T21:34:28.776Z,19.90
2018-06-07T21:36:55.740Z,19.80
2018-06-07T21:39:22.730Z,19.80
2018-06-07T21:41:49.674Z,19.80
2018-06-07T21:44:16.617Z,19.70
2018-06-07T21:46:43.651Z,19.70
2018-06-07T21:49:10.531Z,19.70
2018-06-07T21:51:37.484Z,19.60
2018-06-07T21:54:04.476Z,19.50
2018-06-07T21:56:31.423Z,19.50
2018-06-07T21:58:58.407Z,19.50
2018-06-07T22:01:25.342Z,19.40
2018-06-07T22:03:52.277Z,19.40
2018-06-07T22:06:19.210Z,19.30
2018-06-07T22:08:46.179Z,19.30
2018-06-07T22:11:13.095Z,19.20
2018-06-07T22:13:40.064Z,19.20
2018-06-07T22:16:07.044Z,19.20
2018-06-07T22:18:34.023Z,19.20
2018-06-07T22:21:00.977Z,19.10
2018-06-07T22:23:27.925Z,19.10
2018-06-07T22:25:54.852Z,19.10
2018-06-07T22:28:21.817Z,19.00
2018-06-07T22:30:48.755Z,19.00
2018-06-07T22:33:15.695Z,19.00
2018-06-07T22:35:42.648Z,18.90
2018-06-07T22:38:09.613Z,18.90
2018-06-07T22:40:36.546Z,18.90
2018-06-07T22:43:04.270Z,18.90
2018-06-07T22:45:31.302Z,18.80
2018-06-07T22:47:58.264Z,18.70
2018-06-07T22:50:25.383Z,18.70
2018-06-07T22:52:52.399Z,18.70
2018-06-07T22:55:19.314Z,18.70
2018-06-07T22:57:46.282Z,18.60
2018-06-07T23:00:14.843Z,18.60
2018-06-07T23:02:47.584Z,18.60
2018-06-07T23:05:14.538Z,18.50
2018-06-07T23:07:41.473Z,18.40
2018-06-07T23:10:08.605Z,18.40
2018-06-07T23:12:35.624Z,18.40
2018-06-07T23:15:02.591Z,18.30
2018-06-07T23:17:29.507Z,18.30
2018-06-07T23:19:56.602Z,18.30
2018-06-07T23:22:23.513Z,18.30
2018-06-07T23:24:50.441Z,18.20
2018-06-07T23:27:18.220Z,18.10
2018-06-07T23:29:45.421Z,18.10
2018-06-07T23:32:12.571Z,18.10
2018-06-07T23:34:39.650Z,18.00
2018-06-07T23:37:06.594Z,18.00
2018-06-07T23:39:33.799Z,18.00
2018-06-07T23:42:00.860Z,18.00
2018-06-07T23:44:27.805Z,18.00
2018-06-07T23:46:54.736Z,18.00
2018-06-07T23:49:21.911Z,18.00
2018-06-07T23:51:48.880Z,17.90
2018-06-07T23:54:16.158Z,17.90
2018-06-07T23:56:43.231Z,17.80
2018-06-07T23:59:10.202Z,17.80
